Catàleg de serveis del Meteocat
Campanya meteocatpedra

Dades de l'estació automàtica Sant Sadurní d'Anoia

?
?
Resum diari 23:00 TU
Dades diàries de l'estació meteorològica
Temperatura mitjana 24.7 °C
Temperatura màxima 32.6 °C 11:49 TU
Temperatura mínima 17.8 °C 3:47 TU
Humitat relativa mitjana 63%
Precipitació acumulada 0.0 mm
Ratxa màxima del vent (2 m) 28.8 km/h - 228º 12:32 TU
Irradiació solar global 28.3 MJ/m2

El tram horari està expressat en Temps Universal (TU). Cal sumar una hora en horari d'hivern i dues en horari d'estiu per passar a l'hora oficial.

Sant Sadurní d'Anoia

Metadades estació meteorol´gica
Municipi Sant Sadurní d'Anoia
Comarca Alt Penedès
Altitud 164 m
Data alta 11.04.2006
Estat actual Operativa
Dades de període
Període
TU
TM
°C
TX
°C
TN
°C
HRM
%
PPT
mm
VVM (2 m)
km/h
DVM (2 m)
graus
VVX (2 m)
km/h
RS
W/m2
00:00 - 00:30 21.1 21.3 21.0 84 0.0 3.6 319 7.6 0
00:30 - 01:00 21.0 21.2 20.8 84 0.0 4.0 301 8.6 0
01:00 - 01:30 20.3 21.0 19.8 87 0.0 4.0 325 7.9 0
01:30 - 02:00 19.9 20.3 19.5 87 0.0 4.0 325 7.6 0
02:00 - 02:30 19.5 19.8 19.2 89 0.0 3.6 319 8.3 0
02:30 - 03:00 18.9 19.2 18.6 91 0.0 1.4 319 6.5 0
03:00 - 03:30 18.5 18.7 18.2 92 0.0 0.4 49 3.2 0
03:30 - 04:00 18.0 18.2 17.8 94 0.0 1.1 232 3.2 0
04:00 - 04:30 17.9 18.1 17.9 94 0.0 0.7 97 4.7 0
04:30 - 05:00 18.4 19.2 18.1 84 0.0 1.4 269 4.7 7
05:00 - 05:30 19.6 19.9 19.3 73 0.0 1.4 89 4.7 61
05:30 - 06:00 20.7 20.9 19.9 63 0.0 2.9 40 10.8 90
06:00 - 06:30 21.1 21.3 21.0 61 0.0 4.0 16 10.4 137
06:30 - 07:00 22.6 23.5 21.5 56 0.0 4.3 24 13.0 353
07:00 - 07:30 23.8 25.2 23.2 52 0.0 4.3 9 11.9 436
07:30 - 08:00 24.8 25.8 23.9 49 0.0 4.0 14 12.2 488
08:00 - 08:30 25.4 26.1 24.8 49 0.0 3.6 20 10.1 504
08:30 - 09:00 27.1 28.3 25.6 49 0.0 3.2 46 11.5 662
09:00 - 09:30 27.9 29.0 27.0 52 0.0 3.2 53 9.4 745
09:30 - 10:00 28.9 30.1 28.0 49 0.0 3.2 77 11.5 804
10:00 - 10:30 29.7 30.7 28.8 47 0.0 3.2 53 13.7 831
10:30 - 11:00 29.8 30.3 29.1 46 0.0 4.3 94 14.0 815
11:00 - 11:30 30.8 31.5 29.4 41 0.0 3.6 47 12.6 933
11:30 - 12:00 31.4 32.6 29.9 37 0.0 3.6 44 12.6 961
12:00 - 12:30 31.8 32.6 30.8 36 0.0 4.0 49 14.8 889
12:30 - 13:00 30.3 31.1 29.3 42 0.0 8.3 166 28.8 907
13:00 - 13:30 30.1 31.3 29.5 42 0.0 10.4 198 24.8 938
13:30 - 14:00 29.6 30.3 29.2 46 0.0 10.1 217 20.9 869
14:00 - 14:30 29.8 30.3 29.3 46 0.0 8.6 206 19.8 817
14:30 - 15:00 29.6 30.1 29.2 47 0.0 10.4 208 22.7 739
15:00 - 15:30 29.4 29.9 29.1 47 0.0 12.2 220 24.1 668
15:30 - 16:00 29.2 29.5 28.8 49 0.0 10.8 211 18.7 583
16:00 - 16:30 28.7 29.2 28.3 50 0.0 9.4 210 19.8 496
16:30 - 17:00 28.9 29.6 28.4 49 0.0 5.8 226 16.9 401
17:00 - 17:30 28.1 29.5 27.1 52 0.0 4.3 110 14.4 311
17:30 - 18:00 26.7 27.0 26.1 56 0.0 4.3 125 17.6 202
18:00 - 18:30 25.5 26.1 25.3 60 0.0 2.9 166 10.4 61
18:30 - 19:00 25.0 25.3 24.6 61 0.0 2.9 146 10.4 32
19:00 - 19:30 24.3 24.6 24.0 65 0.0 3.6 194 9.7 7
19:30 - 20:00 23.8 24.0 23.6 67 0.0 4.7 205 9.0 0
20:00 - 20:30 23.4 23.6 23.1 71 0.0 6.5 212 11.5 0
20:30 - 21:00 23.0 23.1 23.0 72 0.0 5.0 212 11.2 0
21:00 - 21:30 22.8 22.9 22.5 73 0.0 4.0 213 10.8 0
21:30 - 22:00 22.0 22.4 21.6 76 0.0 1.4 240 6.1 0
22:00 - 22:30 21.4 21.8 20.8 79 0.0 2.2 215 4.0 0
22:30 - 23:00 20.4 21.0 19.8 83 0.0 0.7 256 2.9 0
23:00 - 23:30 19.6 19.8 19.3 87 0.0 0.7 300 2.9 0

Les dades en taronja només han passat un control de qualitat automàtic. Resta pendent la seva validació definitiva.